createdAt,value
2019-02-21T00:00:40.969Z,95719.56
2019-02-21T00:03:06.965Z,95721.73
2019-02-21T00:05:32.967Z,95720.30
2019-02-21T00:07:58.962Z,95722.23
2019-02-21T00:10:24.963Z,95722.23
2019-02-21T00:12:50.956Z,95720.48
2019-02-21T00:15:16.957Z,95713.33
2019-02-21T00:17:42.970Z,95715.65
2019-02-21T00:20:08.957Z,95715.27
2019-02-21T00:22:34.953Z,95712.18
2019-02-21T00:25:00.959Z,95706.93
2019-02-21T00:27:26.951Z,95710.51
2019-02-21T00:29:52.955Z,95700.69
2019-02-21T00:32:18.946Z,95710.02
2019-02-21T00:34:44.945Z,95711.45
2019-02-21T00:37:10.942Z,95709.59
2019-02-21T00:39:36.937Z,95710.43
2019-02-21T00:42:02.941Z,95708.38
2019-02-21T00:44:28.936Z,95711.45
2019-02-21T00:46:54.937Z,95711.45
2019-02-21T00:49:20.934Z,95710.13
2019-02-21T00:51:46.931Z,95712.37
2019-02-21T00:54:12.931Z,95709.70
2019-02-21T00:56:38.929Z,95708.38
2019-02-21T00:59:04.946Z,95708.38
2019-02-21T01:01:30.948Z,95705.78
2019-02-21T01:03:56.938Z,95703.13
2019-02-21T01:06:22.939Z,95699.66
2019-02-21T01:08:48.936Z,95697.30
2019-02-21T01:11:14.930Z,95696.46
2019-02-21T01:13:40.928Z,95689.31
2019-02-21T01:16:06.931Z,95686.64
2019-02-21T01:18:32.921Z,95689.80
2019-02-21T01:20:58.926Z,95682.23
2019-02-21T01:23:24.912Z,95678.73
2019-02-21T01:25:50.916Z,95680.59
2019-02-21T01:28:16.918Z,95681.01
2019-02-21T01:30:42.917Z,95686.72
2019-02-21T01:33:08.913Z,95695.23
2019-02-21T01:35:34.921Z,95695.23
2019-02-21T01:38:00.925Z,95690.41
2019-02-21T01:40:26.922Z,95689.00
2019-02-21T01:42:52.920Z,95687.25
2019-02-21T01:45:18.926Z,95678.00
2019-02-21T01:47:44.921Z,95682.00
2019-02-21T01:50:10.926Z,95682.91
2019-02-21T01:52:36.925Z,95680.25
2019-02-21T01:55:02.915Z,95687.75
2019-02-21T01:57:28.940Z,95687.75
2019-02-21T01:59:54.943Z,95693.98
2019-02-21T02:02:20.938Z,95687.86
2019-02-21T02:04:46.935Z,95687.86
2019-02-21T02:07:12.934Z,95685.19
2019-02-21T02:09:38.932Z,95683.86
2019-02-21T02:12:04.923Z,95687.44
2019-02-21T02:14:30.925Z,95686.11
2019-02-21T02:16:56.924Z,95692.77
2019-02-21T02:19:22.915Z,95693.19
2019-02-21T02:21:48.911Z,95694.59
2019-02-21T02:24:14.996Z,95698.59
2019-02-21T02:26:40.906Z,95699.00
2019-02-21T02:29:06.899Z,95702.69
2019-02-21T02:31:32.911Z,95700.83
2019-02-21T02:33:58.890Z,95701.75
2019-02-21T02:36:24.884Z,95706.58
2019-02-21T02:38:50.955Z,95707.41
2019-02-21T02:41:16.887Z,95708.83
2019-02-21T02:43:42.887Z,95704.02
2019-02-21T02:46:08.888Z,95710.68
2019-02-21T02:48:34.884Z,95705.36
2019-02-21T02:51:00.884Z,95702.58
2019-02-21T02:53:26.889Z,95698.28
2019-02-21T02:55:52.891Z,95705.44
2019-02-21T02:58:18.895Z,95714.67
2019-02-21T03:00:44.889Z,95720.01
2019-02-21T03:03:10.883Z,95718.33
2019-02-21T03:05:36.885Z,95705.93
2019-02-21T03:08:02.905Z,95713.00
2019-02-21T03:10:28.898Z,95718.86
2019-02-21T03:12:55.030Z,95722.75
2019-02-21T03:15:20.912Z,95725.91
2019-02-21T03:17:46.907Z,95723.77
2019-02-21T03:20:12.913Z,95732.17
2019-02-21T03:22:38.905Z,95736.17
2019-02-21T03:25:04.902Z,95744.16
2019-02-21T03:27:30.894Z,95743.93
2019-02-21T03:29:56.903Z,95749.07
2019-02-21T03:32:22.909Z,95757.87
2019-02-21T03:34:48.904Z,95758.39
2019-02-21T03:37:14.905Z,95754.40
2019-02-21T03:39:40.895Z,95762.39
2019-02-21T03:42:06.914Z,95768.21
2019-02-21T03:44:32.916Z,95767.72
2019-02-21T03:46:58.921Z,95763.30
2019-02-21T03:49:24.940Z,95767.30
2019-02-21T03:51:50.943Z,95764.63
2019-02-21T03:54:16.941Z,95773.54
2019-02-21T03:56:42.966Z,95775.78
2019-02-21T03:59:08.970Z,95782.37
2019-02-21T04:01:34.965Z,95776.20
2019-02-21T04:04:00.984Z,95772.63
2019-02-21T04:06:27.005Z,95778.86
2019-02-21T04:08:52.989Z,95792.59
2019-02-21T04:11:18.999Z,95800.67
2019-02-21T04:13:44.989Z,95801.01
2019-02-21T04:16:11.005Z,95792.19
2019-02-21T04:18:36.998Z,95796.18
2019-02-21T04:21:03.006Z,95793.02
2019-02-21T04:23:29.006Z,95805.00
2019-02-21T04:25:54.993Z,95815.24
2019-02-21T04:28:20.989Z,95799.26
2019-02-21T04:30:47.023Z,95802.76
2019-02-21T04:33:13.060Z,95800.67
2019-02-21T04:35:39.055Z,95812.16
2019-02-21T04:38:05.067Z,95823.66
2019-02-21T04:40:31.064Z,95809.91
2019-02-21T04:42:57.061Z,95813.07
2019-02-21T04:45:23.149Z,95825.48
2019-02-21T04:47:49.063Z,95828.98
2019-02-21T04:50:15.065Z,95820.56
2019-02-21T04:52:41.062Z,95809.91
2019-02-21T04:55:07.061Z,95821.48
2019-02-21T04:57:33.070Z,95817.91
2019-02-21T04:59:59.067Z,95813.07
2019-02-21T05:02:28.971Z,95814.82
2019-02-21T05:04:51.060Z,95818.33
2019-02-21T05:07:17.059Z,95817.48
2019-02-21T05:09:43.141Z,95818.40
2019-02-21T05:12:09.140Z,95815.24
2019-02-21T05:14:35.143Z,95818.81
2019-02-21T05:17:01.198Z,95829.47
2019-02-21T05:19:27.160Z,95835.22
2019-02-21T05:21:53.165Z,95834.30
2019-02-21T05:24:19.178Z,95837.70
2019-02-21T05:26:45.199Z,95838.61
2019-02-21T05:29:11.196Z,95839.94
2019-02-21T05:31:37.245Z,95834.20
2019-02-21T05:34:03.242Z,95847.33
2019-02-21T05:36:29.221Z,95856.47
2019-02-21T05:38:55.251Z,95851.98
2019-02-21T05:41:21.255Z,95858.53
2019-02-21T05:43:47.284Z,95865.61
2019-02-21T05:46:13.287Z,95873.19
2019-02-21T05:48:40.343Z,95873.71
2019-02-21T05:51:05.279Z,95871.05
2019-02-21T05:53:31.332Z,95876.80
2019-02-21T05:55:57.348Z,95883.03
2019-02-21T05:58:23.334Z,95884.26
2019-02-21T06:00:49.335Z,95886.01
2019-02-21T06:03:15.331Z,95895.33
2019-02-21T06:05:41.338Z,95902.83
2019-02-21T06:08:07.344Z,95903.25
2019-02-21T06:10:33.387Z,95898.84
2019-02-21T06:13:00.151Z,95904.16
2019-02-21T06:15:25.387Z,95903.69
2019-02-21T06:17:51.403Z,95898.84
2019-02-21T06:20:18.010Z,95909.56
2019-02-21T06:22:43.398Z,95911.81
2019-02-21T06:25:09.384Z,95916.64
2019-02-21T06:27:37.982Z,95920.22
2019-02-21T06:30:01.617Z,95921.55
2019-02-21T06:32:27.643Z,95929.55
2019-02-21T06:34:53.634Z,95929.13
2019-02-21T06:37:19.644Z,95929.55
2019-02-21T06:39:45.642Z,95929.55
2019-02-21T06:42:11.665Z,95929.65
2019-02-21T06:44:38.112Z,95938.45
2019-02-21T06:47:03.671Z,95934.14
2019-02-21T06:49:32.654Z,95946.05
2019-02-21T06:51:55.672Z,95941.64
2019-02-21T06:54:22.571Z,95947.38
2019-02-21T06:56:47.672Z,95953.52
2019-02-21T06:59:13.669Z,95954.05
2019-02-21T07:01:40.766Z,95942.05
2019-02-21T07:04:06.789Z,95950.96
2019-02-21T07:06:32.800Z,95954.44
2019-02-21T07:08:59.870Z,95958.42
2019-02-21T07:11:25.450Z,95958.95
2019-02-21T07:13:50.817Z,95969.92
2019-02-21T07:16:16.825Z,95966.84
2019-02-21T07:18:42.826Z,95959.87
2019-02-21T07:21:08.823Z,95960.28
2019-02-21T07:23:43.175Z,95974.94
2019-02-21T07:26:00.904Z,95978.94
2019-02-21T07:28:27.791Z,95969.19
2019-02-21T07:30:53.006Z,95969.61
2019-02-21T07:33:27.941Z,95975.43
2019-02-21T07:35:45.008Z,95984.34
2019-02-21T07:38:10.995Z,95990.08
2019-02-21T07:40:37.002Z,95978.09
2019-02-21T07:43:02.998Z,95969.19
2019-02-21T07:45:29.020Z,95982.02
2019-02-21T07:47:55.064Z,95978.02
2019-02-21T07:50:23.063Z,95986.92
2019-02-21T07:52:47.023Z,95982.83
2019-02-21T07:55:13.139Z,95983.34
2019-02-21T07:57:39.137Z,95989.41
2019-02-21T08:00:05.157Z,95985.59
2019-02-21T08:02:31.157Z,95987.23
2019-02-21T08:04:57.148Z,95986.14
2019-02-21T08:07:23.151Z,95987.89
2019-02-21T08:09:49.160Z,95991.37
2019-02-21T08:12:15.159Z,95986.45
2019-02-21T08:14:43.358Z,95988.62
2019-02-21T08:17:07.201Z,95990.69
2019-02-21T08:19:33.206Z,95985.36
2019-02-21T08:22:00.255Z,95990.27
2019-02-21T08:24:25.214Z,95978.39
2019-02-21T08:26:51.212Z,95984.03
2019-02-21T08:29:17.211Z,95975.62
2019-02-21T08:31:43.221Z,95978.70
2019-02-21T08:34:09.234Z,95982.28
2019-02-21T08:36:35.241Z,95979.13
2019-02-21T08:39:01.282Z,95984.87
2019-02-21T08:41:27.280Z,95976.53
2019-02-21T08:43:53.293Z,95986.70
2019-02-21T08:46:19.328Z,95988.13
2019-02-21T08:48:47.723Z,95997.04
2019-02-21T08:51:11.331Z,95988.13
2019-02-21T08:53:37.323Z,95992.13
2019-02-21T08:56:03.339Z,95991.60
2019-02-21T08:58:29.374Z,95990.38
2019-02-21T09:00:55.373Z,95989.54
2019-02-21T09:03:21.378Z,95984.94
2019-02-21T09:05:47.378Z,95988.62
2019-02-21T09:08:13.442Z,95983.20
2019-02-21T09:10:39.413Z,95981.97
2019-02-21T09:13:05.414Z,95983.72
2019-02-21T09:15:31.452Z,95982.88
2019-02-21T09:17:57.461Z,95981.55
2019-02-21T09:20:23.466Z,95978.57
2019-02-21T09:22:49.467Z,95978.15
2019-02-21T09:25:15.469Z,95986.38
2019-02-21T09:27:41.463Z,95987.72
2019-02-21T09:30:07.498Z,95985.13
2019-02-21T09:32:33.511Z,95981.66
2019-02-21T09:34:59.508Z,95984.70
2019-02-21T09:37:25.508Z,95983.38
2019-02-21T09:39:51.504Z,95984.70
2019-02-21T09:42:17.506Z,95984.22
2019-02-21T09:44:43.513Z,95978.47
2019-02-21T09:47:09.524Z,95977.13
2019-02-21T09:49:35.522Z,95972.72
2019-02-21T09:52:01.555Z,95970.47
2019-02-21T09:54:27.588Z,95973.13
2019-02-21T09:56:53.574Z,95965.25
2019-02-21T09:59:19.585Z,95970.89
2019-02-21T10:01:45.588Z,95965.49
2019-02-21T10:04:11.583Z,95972.05
2019-02-21T10:06:37.658Z,95967.73
2019-02-21T10:09:03.700Z,95967.20
2019-02-21T10:11:29.695Z,95957.81
2019-02-21T10:13:55.718Z,95962.64
2019-02-21T10:16:21.723Z,95960.48
2019-02-21T10:18:47.741Z,95956.89
2019-02-21T10:21:13.716Z,95946.73
2019-02-21T10:23:42.042Z,95957.81
2019-02-21T10:26:05.707Z,95957.39
2019-02-21T10:28:32.507Z,95946.73
2019-02-21T10:30:57.705Z,95947.16
2019-02-21T10:33:25.412Z,95950.66
2019-02-21T10:35:49.695Z,95942.97
2019-02-21T10:38:15.721Z,95942.06
2019-02-21T10:40:41.721Z,95930.15
2019-02-21T10:43:07.724Z,95925.77
2019-02-21T10:45:33.734Z,95923.41
2019-02-21T10:47:59.737Z,95919.42
2019-02-21T10:50:25.736Z,95914.92
2019-02-21T10:52:51.749Z,95910.41
2019-02-21T10:55:17.766Z,95907.14
2019-02-21T10:57:45.423Z,95904.89
2019-02-21T11:00:09.806Z,95896.41
2019-02-21T11:02:35.807Z,95897.24
2019-02-21T11:05:01.804Z,95894.16
2019-02-21T11:07:27.806Z,95882.91
2019-02-21T11:09:53.806Z,95883.73
2019-02-21T11:12:19.808Z,95871.75
2019-02-21T11:14:47.767Z,95868.25
2019-02-21T11:17:11.811Z,95862.42
2019-02-21T11:19:37.812Z,95869.29
2019-02-21T11:22:03.837Z,95869.29
2019-02-21T11:24:29.826Z,95863.57
2019-02-21T11:26:55.829Z,95859.47
2019-02-21T11:29:21.825Z,95854.56
2019-02-21T11:31:47.903Z,95855.39
2019-02-21T11:34:13.897Z,95849.96
2019-02-21T11:36:39.897Z,95849.13
2019-02-21T11:39:05.980Z,95844.55
2019-02-21T11:41:31.973Z,95842.62
2019-02-21T11:43:57.973Z,95841.28
2019-02-21T11:46:23.976Z,95840.27
2019-02-21T11:48:49.981Z,95846.32
2019-02-21T11:51:15.977Z,95839.16
2019-02-21T11:53:42.084Z,95836.81
2019-02-21T11:56:08.078Z,95828.33
2019-02-21T11:58:34.083Z,95830.88
2019-02-21T12:01:00.076Z,95833.77
2019-02-21T12:03:26.081Z,95829.78
2019-02-21T12:05:52.099Z,95813.90
2019-02-21T12:08:18.142Z,95816.69
2019-02-21T12:10:44.133Z,95811.78
2019-02-21T12:13:10.132Z,95824.61
2019-02-21T12:15:36.128Z,95821.41
2019-02-21T12:18:02.138Z,95818.48
2019-02-21T12:20:28.130Z,95818.48
2019-02-21T12:22:54.138Z,95817.57
2019-02-21T12:25:20.127Z,95816.97
2019-02-21T12:27:46.130Z,95810.61
2019-02-21T12:30:12.126Z,95811.03
2019-02-21T12:32:38.197Z,95808.78
2019-02-21T12:35:04.212Z,95796.30
2019-02-21T12:37:30.228Z,95805.94
2019-02-21T12:39:56.245Z,95811.39
2019-02-21T12:42:22.238Z,95806.89
2019-02-21T12:44:48.252Z,95804.23
2019-02-21T12:47:14.251Z,95811.02
2019-02-21T12:49:40.274Z,95806.10
2019-02-21T12:52:06.268Z,95813.18
2019-02-21T12:54:32.274Z,95806.94
2019-02-21T12:56:58.272Z,95800.27
2019-02-21T12:59:24.271Z,95795.67
2019-02-21T13:01:50.271Z,95807.48
2019-02-21T13:04:16.272Z,95799.48
2019-02-21T13:06:42.280Z,95800.20
2019-02-21T13:09:08.290Z,95793.47
2019-02-21T13:11:35.555Z,95795.60
2019-02-21T13:14:00.319Z,95795.53
2019-02-21T13:16:26.315Z,95790.53
2019-02-21T13:18:52.320Z,95787.45
2019-02-21T13:21:18.319Z,95788.78
2019-02-21T13:23:44.323Z,95789.13
2019-02-21T13:26:10.317Z,95785.93
2019-02-21T13:28:36.387Z,95787.61
2019-02-21T13:31:02.391Z,95784.52
2019-02-21T13:33:28.409Z,95778.69
2019-02-21T13:35:54.410Z,95775.00
2019-02-21T13:38:20.435Z,95779.00
2019-02-21T13:40:46.419Z,95773.56
2019-02-21T13:43:12.426Z,95774.50
2019-02-21T13:45:41.427Z,95767.23
2019-02-21T13:48:07.424Z,95772.56
2019-02-21T13:50:33.432Z,95771.73
2019-02-21T13:52:59.492Z,95764.03
2019-02-21T13:55:25.595Z,95768.56
2019-02-21T13:57:51.575Z,95772.15
2019-02-21T14:00:17.634Z,95770.89
2019-02-21T14:02:43.830Z,95772.56
2019-02-21T14:05:09.836Z,95771.46
2019-02-21T14:07:37.328Z,95770.94
2019-02-21T14:10:01.837Z,95769.33
2019-02-21T14:12:27.830Z,95768.04
2019-02-21T14:14:53.836Z,95770.70
2019-02-21T14:17:19.930Z,95771.93
2019-02-21T14:19:45.940Z,95767.43
2019-02-21T14:22:11.937Z,95761.27
2019-02-21T14:24:37.935Z,95759.73
2019-02-21T14:27:03.949Z,95757.98
2019-02-21T14:29:38.883Z,95757.72
2019-02-21T14:31:55.944Z,95755.97
2019-02-21T14:34:21.987Z,95757.00
2019-02-21T14:36:47.993Z,95757.91
2019-02-21T14:39:15.196Z,95749.98
2019-02-21T14:41:43.775Z,95751.44
2019-02-21T14:44:07.196Z,95753.27
2019-02-21T14:46:33.201Z,95751.52
2019-02-21T14:48:59.205Z,95741.37
2019-02-21T14:51:25.203Z,95744.05
2019-02-21T14:53:51.224Z,95745.03
2019-02-21T14:56:19.815Z,95745.95
2019-02-21T14:58:43.212Z,95749.15
2019-02-21T15:01:09.202Z,95746.06
2019-02-21T15:03:35.194Z,95744.81
2019-02-21T15:06:01.225Z,95741.76
2019-02-21T15:08:27.231Z,95744.42
2019-02-21T15:10:53.243Z,95736.50
2019-02-21T15:13:19.239Z,95744.50
2019-02-21T15:15:45.244Z,95742.75
2019-02-21T15:18:11.440Z,95744.08
2019-02-21T15:20:37.370Z,95743.28
2019-02-21T15:23:03.249Z,95744.27
2019-02-21T15:25:29.302Z,95750.94
2019-02-21T15:27:55.370Z,95742.63
2019-02-21T15:30:21.299Z,95744.88
2019-02-21T15:32:47.300Z,95749.80
2019-02-21T15:35:13.322Z,95752.98
2019-02-21T15:37:39.315Z,95749.98
2019-02-21T15:40:05.322Z,95747.01
2019-02-21T15:42:31.890Z,95751.42
2019-02-21T15:44:57.901Z,95748.03
2019-02-21T15:47:23.931Z,95743.70
2019-02-21T15:49:49.926Z,95749.45
2019-02-21T15:52:22.285Z,95754.77
2019-02-21T15:54:41.935Z,95752.72
2019-02-21T15:57:07.934Z,95746.05
2019-02-21T15:59:33.926Z,95744.30
2019-02-21T16:02:00.914Z,95743.89
2019-02-21T16:04:28.179Z,95748.22
2019-02-21T16:06:56.986Z,95746.89
2019-02-21T16:09:25.099Z,95746.97
2019-02-21T16:11:49.021Z,95746.55
2019-02-21T16:14:15.058Z,95748.72
2019-02-21T16:16:41.062Z,95751.55
2019-02-21T16:19:07.065Z,95753.30
2019-02-21T16:21:33.097Z,95757.78
2019-02-21T16:23:59.090Z,95764.03
2019-02-21T16:26:28.292Z,95768.22
2019-02-21T16:28:54.763Z,95767.23
2019-02-21T16:31:21.260Z,95770.81
2019-02-21T16:33:48.238Z,95773.89
2019-02-21T16:36:15.299Z,95777.05
2019-02-21T16:38:41.320Z,95774.58
2019-02-21T16:41:07.363Z,95778.47
2019-02-21T16:43:33.364Z,95786.05
2019-02-21T16:46:07.384Z,95789.66
2019-02-21T16:48:25.357Z,95789.23
2019-02-21T16:50:51.404Z,95787.38
2019-02-21T16:53:17.414Z,95788.81
2019-02-21T16:55:43.453Z,95793.31
2019-02-21T16:58:09.447Z,95793.66
2019-02-21T17:00:49.843Z,95792.70
2019-02-21T17:03:01.444Z,95794.56
2019-02-21T17:05:27.449Z,95798.98
2019-02-21T17:07:53.459Z,95795.38
2019-02-21T17:10:19.451Z,95797.05
2019-02-21T17:12:45.455Z,95793.05
2019-02-21T17:15:11.490Z,95793.89
2019-02-21T17:17:37.488Z,95793.89
2019-02-21T17:20:03.490Z,95789.47
2019-02-21T17:22:29.514Z,95777.66
2019-02-21T17:24:55.506Z,95786.87
2019-02-21T17:27:21.511Z,95785.97
2019-02-21T17:29:47.509Z,95782.80
2019-02-21T17:32:13.511Z,95787.72
2019-02-21T17:34:41.450Z,95790.38
2019-02-21T17:37:07.459Z,95794.27
2019-02-21T17:39:33.455Z,95797.88
2019-02-21T17:41:59.472Z,95794.27
2019-02-21T17:44:25.495Z,95785.89
2019-02-21T17:46:51.498Z,95786.80
2019-02-21T17:49:17.537Z,95792.44
2019-02-21T17:51:43.524Z,95787.61
2019-02-21T17:54:09.589Z,95785.47
2019-02-21T17:56:35.711Z,95786.87
2019-02-21T17:59:01.733Z,95789.55
2019-02-21T18:01:27.727Z,95786.98
2019-02-21T18:03:53.763Z,95785.13
2019-02-21T18:06:19.797Z,95780.22
2019-02-21T18:08:45.803Z,95780.71
2019-02-21T18:11:12.608Z,95780.71
2019-02-21T18:13:37.800Z,95788.32
2019-02-21T18:16:07.808Z,95780.83
2019-02-21T18:18:30.845Z,95780.90
2019-02-21T18:20:56.880Z,95784.90
2019-02-21T18:23:22.885Z,95774.84
2019-02-21T18:25:48.880Z,95786.16
2019-02-21T18:28:14.893Z,95783.98
2019-02-21T18:30:40.889Z,95780.09
2019-02-21T18:33:06.916Z,95782.42
2019-02-21T18:35:32.932Z,95788.17
2019-02-21T18:37:58.942Z,95783.37
2019-02-21T18:40:25.038Z,95790.03
2019-02-21T18:42:51.087Z,95789.08
2019-02-21T18:45:17.098Z,95786.03
2019-02-21T18:47:43.109Z,95790.22
2019-02-21T18:50:09.147Z,95793.61
2019-02-21T18:52:35.158Z,95794.94
2019-02-21T18:55:01.201Z,95796.28
2019-02-21T18:57:27.342Z,95795.75
2019-02-21T18:59:53.398Z,95792.70
2019-02-21T19:02:19.920Z,95798.10
2019-02-21T19:04:45.504Z,95789.27
2019-02-21T19:07:11.550Z,95794.94
2019-02-21T19:09:37.546Z,95790.53
2019-02-21T19:12:03.560Z,95787.36
2019-02-21T19:14:29.576Z,95788.70
2019-02-21T19:16:55.590Z,95785.69
2019-02-21T19:19:21.599Z,95788.36
2019-02-21T19:21:47.597Z,95794.52
2019-02-21T19:24:13.602Z,95785.27
2019-02-21T19:26:39.603Z,95789.27
2019-02-21T19:29:05.619Z,95790.22
2019-02-21T19:31:31.629Z,95789.38
2019-02-21T19:33:57.644Z,95794.71
2019-02-21T19:36:23.643Z,95792.96
2019-02-21T19:38:49.667Z,95798.41
2019-02-21T19:41:15.945Z,95797.45
2019-02-21T19:43:41.982Z,95801.45
2019-02-21T19:46:07.974Z,95802.89
2019-02-21T19:48:34.006Z,95802.06
2019-02-21T19:51:00.014Z,95804.53
2019-02-21T19:53:27.630Z,95799.81
2019-02-21T19:55:53.641Z,95805.56
2019-02-21T19:58:19.637Z,95798.97
2019-02-21T20:00:45.644Z,95802.97
2019-02-21T20:03:11.655Z,95797.14
2019-02-21T20:05:37.657Z,95796.23
2019-02-21T20:08:08.505Z,95792.73
2019-02-21T20:10:29.682Z,95793.64
2019-02-21T20:12:55.686Z,95789.26
2019-02-21T20:15:22.758Z,95788.31
2019-02-21T20:17:47.826Z,95780.73
2019-02-21T20:20:13.828Z,95783.92
2019-02-21T20:22:39.887Z,95787.09
2019-02-21T20:25:05.890Z,95780.61
2019-02-21T20:27:31.904Z,95777.45
2019-02-21T20:30:01.989Z,95769.04
2019-02-21T20:32:28.027Z,95777.11
2019-02-21T20:34:54.020Z,95770.87
2019-02-21T20:37:20.038Z,95773.64
2019-02-21T20:39:46.057Z,95776.31
2019-02-21T20:42:12.062Z,95772.80
2019-02-21T20:44:38.068Z,95771.05
2019-02-21T20:47:04.069Z,95774.63
2019-02-21T20:49:30.073Z,95776.49
2019-02-21T20:51:56.078Z,95768.08
2019-02-21T20:54:22.094Z,95764.58
2019-02-21T20:56:48.091Z,95757.50
2019-02-21T20:59:14.089Z,95757.19
2019-02-21T21:01:40.098Z,95751.36
2019-02-21T21:04:06.126Z,95749.61
2019-02-21T21:06:32.130Z,95747.94
2019-02-21T21:08:58.159Z,95740.36
2019-02-21T21:11:24.168Z,95744.36
2019-02-21T21:13:50.167Z,95741.28
2019-02-21T21:16:16.171Z,95728.48
2019-02-21T21:18:42.183Z,95728.56
2019-02-21T21:21:08.205Z,95728.56
2019-02-21T21:23:34.215Z,95725.09
2019-02-21T21:26:00.210Z,95729.09
2019-02-21T21:28:26.237Z,95725.59
2019-02-21T21:30:52.233Z,95725.17
2019-02-21T21:33:18.340Z,95731.41
2019-02-21T21:35:44.325Z,95727.41
2019-02-21T21:38:10.332Z,95723.42
2019-02-21T21:40:36.347Z,95724.44
2019-02-21T21:43:02.373Z,95728.44
2019-02-21T21:45:28.377Z,95730.69
2019-02-21T21:47:54.386Z,95726.27
2019-02-21T21:50:20.491Z,95725.44
2019-02-21T21:52:46.483Z,95732.09
2019-02-21T21:55:12.480Z,95728.09
2019-02-21T21:57:38.478Z,95725.55
2019-02-21T22:00:04.505Z,95719.80
2019-02-21T22:02:30.503Z,95721.55
2019-02-21T22:04:56.502Z,95722.05
2019-02-21T22:07:22.500Z,95720.71
2019-02-21T22:09:56.210Z,95728.28
2019-02-21T22:12:22.232Z,95726.15
2019-02-21T22:14:48.248Z,95726.64
2019-02-21T22:17:14.272Z,95727.06
2019-02-21T22:19:40.289Z,95731.98
2019-02-21T22:22:06.311Z,95727.98
2019-02-21T22:24:32.417Z,95721.81
2019-02-21T22:26:58.447Z,95725.81
2019-02-21T22:29:24.468Z,95725.42
2019-02-21T22:31:50.488Z,95718.95
2019-02-21T22:34:16.504Z,95725.92
2019-02-21T22:36:42.523Z,95727.75
2019-02-21T22:39:15.950Z,95732.16
2019-02-21T22:41:34.567Z,95729.08
2019-02-21T22:44:00.584Z,95724.59
2019-02-21T22:46:26.600Z,95735.32
2019-02-21T22:48:52.615Z,95729.69
2019-02-21T22:51:18.626Z,95725.27
2019-02-21T22:53:44.648Z,95727.02
2019-02-21T22:56:10.660Z,95723.52
2019-02-21T22:58:44.677Z,95721.69
2019-02-21T23:01:02.703Z,95721.80
2019-02-21T23:03:28.717Z,95718.30
2019-02-21T23:05:54.736Z,95715.64
2019-02-21T23:08:20.758Z,95718.30
2019-02-21T23:10:46.774Z,95716.55
2019-02-21T23:13:12.786Z,95713.47
2019-02-21T23:15:38.813Z,95710.00
2019-02-21T23:18:04.830Z,95707.72
2019-02-21T23:20:30.832Z,95708.67
2019-02-21T23:22:56.828Z,95705.25
2019-02-21T23:25:22.848Z,95703.00
2019-02-21T23:27:48.844Z,95704.25
2019-02-21T23:30:14.873Z,95700.75
2019-02-21T23:32:40.880Z,95704.75
2019-02-21T23:35:06.876Z,95701.36
2019-02-21T23:37:32.877Z,95701.25
2019-02-21T23:39:58.872Z,95694.20
2019-02-21T23:42:24.877Z,95695.11
2019-02-21T23:44:50.866Z,95687.54
2019-02-21T23:47:16.867Z,95696.03
2019-02-21T23:49:42.867Z,95691.62
2019-02-21T23:52:08.888Z,95688.53
2019-02-21T23:54:34.882Z,95684.12
2019-02-21T23:57:00.881Z,95686.39
2019-02-21T23:59:26.882Z,95685.45
